sensor_id;sensor_type;location;lat;lon;timestamp;P1;durP1;ratioP1;P2;durP2;ratioP2
23123;SDS011;11731;48.592;8.858;2023-02-22T00:00:51;5.53;;;4.40;;
23123;SDS011;11731;48.592;8.858;2023-02-22T00:03:18;8.83;;;4.00;;
23123;SDS011;11731;48.592;8.858;2023-02-22T00:05:54;5.57;;;3.83;;
23123;SDS011;11731;48.592;8.858;2023-02-22T00:08:24;11.90;;;4.70;;
23123;SDS011;11731;48.592;8.858;2023-02-22T00:10:54;8.70;;;4.50;;
23123;SDS011;11731;48.592;8.858;2023-02-22T00:13:22;5.50;;;4.00;;
23123;SDS011;11731;48.592;8.858;2023-02-22T00:15:53;9.23;;;3.70;;
23123;SDS011;11731;48.592;8.858;2023-02-22T00:18:20;5.30;;;3.80;;
23123;SDS011;11731;48.592;8.858;2023-02-22T00:20:47;7.90;;;3.63;;
23123;SDS011;11731;48.592;8.858;2023-02-22T00:23:16;7.10;;;4.37;;
23123;SDS011;11731;48.592;8.858;2023-02-22T00:25:45;7.90;;;4.33;;
23123;SDS011;11731;48.592;8.858;2023-02-22T00:28:12;6.67;;;4.60;;
23123;SDS011;11731;48.592;8.858;2023-02-22T00:30:42;11.33;;;4.23;;
23123;SDS011;11731;48.592;8.858;2023-02-22T00:33:10;8.10;;;3.93;;
23123;SDS011;11731;48.592;8.858;2023-02-22T00:35:42;4.77;;;3.73;;
23123;SDS011;11731;48.592;8.858;2023-02-22T00:38:11;10.47;;;4.57;;
23123;SDS011;11731;48.592;8.858;2023-02-22T00:40:41;7.47;;;4.07;;
23123;SDS011;11731;48.592;8.858;2023-02-22T00:43:09;8.10;;;4.50;;
23123;SDS011;11731;48.592;8.858;2023-02-22T00:45:43;7.80;;;4.73;;
23123;SDS011;11731;48.592;8.858;2023-02-22T00:48:10;8.30;;;4.80;;
23123;SDS011;11731;48.592;8.858;2023-02-22T00:50:37;7.80;;;4.10;;
23123;SDS011;11731;48.592;8.858;2023-02-22T00:53:04;6.67;;;4.10;;
23123;SDS011;11731;48.592;8.858;2023-02-22T00:55:34;6.20;;;3.97;;
23123;SDS011;11731;48.592;8.858;2023-02-22T00:58:02;7.80;;;3.90;;
23123;SDS011;11731;48.592;8.858;2023-02-22T01:00:32;8.63;;;3.73;;
23123;SDS011;11731;48.592;8.858;2023-02-22T01:03:03;7.63;;;3.73;;
23123;SDS011;11731;48.592;8.858;2023-02-22T01:05:30;7.87;;;4.17;;
23123;SDS011;11731;48.592;8.858;2023-02-22T01:07:58;6.23;;;4.03;;
23123;SDS011;11731;48.592;8.858;2023-02-22T01:10:26;6.43;;;4.03;;
23123;SDS011;11731;48.592;8.858;2023-02-22T01:12:58;6.37;;;3.93;;
23123;SDS011;11731;48.592;8.858;2023-02-22T01:15:28;6.10;;;3.50;;
23123;SDS011;11731;48.592;8.858;2023-02-22T01:17:56;5.57;;;3.63;;
23123;SDS011;11731;48.592;8.858;2023-02-22T01:20:26;6.80;;;3.83;;
23123;SDS011;11731;48.592;8.858;2023-02-22T01:22:54;6.20;;;4.00;;
23123;SDS011;11731;48.592;8.858;2023-02-22T01:25:24;7.93;;;4.37;;
23123;SDS011;11731;48.592;8.858;2023-02-22T01:27:55;7.80;;;4.13;;
23123;SDS011;11731;48.592;8.858;2023-02-22T01:30:23;6.70;;;4.20;;
23123;SDS011;11731;48.592;8.858;2023-02-22T01:32:51;8.30;;;4.30;;
23123;SDS011;11731;48.592;8.858;2023-02-22T01:35:20;5.73;;;3.90;;
23123;SDS011;11731;48.592;8.858;2023-02-22T01:37:50;5.77;;;4.30;;
23123;SDS011;11731;48.592;8.858;2023-02-22T01:40:18;6.00;;;4.20;;
23123;SDS011;11731;48.592;8.858;2023-02-22T01:42:48;7.27;;;4.57;;
23123;SDS011;11731;48.592;8.858;2023-02-22T01:48:07;8.43;;;4.53;;
23123;SDS011;11731;48.592;8.858;2023-02-22T01:50:37;9.27;;;4.60;;
23123;SDS011;11731;48.592;8.858;2023-02-22T01:53:09;7.53;;;4.43;;
23123;SDS011;11731;48.592;8.858;2023-02-22T01:55:39;8.17;;;4.70;;
23123;SDS011;11731;48.592;8.858;2023-02-22T01:58:06;6.57;;;3.77;;
23123;SDS011;11731;48.592;8.858;2023-02-22T02:00:34;6.50;;;4.03;;
23123;SDS011;11731;48.592;8.858;2023-02-22T02:03:04;6.87;;;3.70;;
23123;SDS011;11731;48.592;8.858;2023-02-22T02:05:34;7.97;;;3.70;;
23123;SDS011;11731;48.592;8.858;2023-02-22T02:08:04;9.23;;;4.53;;
23123;SDS011;11731;48.592;8.858;2023-02-22T02:10:40;9.40;;;4.03;;
23123;SDS011;11731;48.592;8.858;2023-02-22T02:13:10;6.43;;;3.70;;
23123;SDS011;11731;48.592;8.858;2023-02-22T02:15:40;6.00;;;3.60;;
23123;SDS011;11731;48.592;8.858;2023-02-22T02:18:08;6.93;;;3.63;;
23123;SDS011;11731;48.592;8.858;2023-02-22T02:20:38;8.10;;;3.80;;
23123;SDS011;11731;48.592;8.858;2023-02-22T02:26:12;6.63;;;4.77;;
23123;SDS011;11731;48.592;8.858;2023-02-22T02:34:46;9.80;;;5.37;;
23123;SDS011;11731;48.592;8.858;2023-02-22T02:37:20;10.73;;;6.03;;
23123;SDS011;11731;48.592;8.858;2023-02-22T02:39:53;7.13;;;5.17;;
23123;SDS011;11731;48.592;8.858;2023-02-22T02:42:27;7.63;;;4.90;;
23123;SDS011;11731;48.592;8.858;2023-02-22T02:45:00;10.10;;;5.60;;
23123;SDS011;11731;48.592;8.858;2023-02-22T02:47:35;8.90;;;5.40;;
23123;SDS011;11731;48.592;8.858;2023-02-22T02:50:08;8.43;;;4.90;;
23123;SDS011;11731;48.592;8.858;2023-02-22T02:52:39;6.73;;;4.93;;
23123;SDS011;11731;48.592;8.858;2023-02-22T02:55:07;7.83;;;5.20;;
23123;SDS011;11731;48.592;8.858;2023-02-22T02:57:36;10.20;;;5.10;;
23123;SDS011;11731;48.592;8.858;2023-02-22T03:00:04;8.27;;;4.97;;
23123;SDS011;11731;48.592;8.858;2023-02-22T03:02:49;9.30;;;5.43;;
23123;SDS011;11731;48.592;8.858;2023-02-22T03:05:34;5.97;;;4.10;;
23123;SDS011;11731;48.592;8.858;2023-02-22T03:08:24;11.33;;;4.53;;
23123;SDS011;11731;48.592;8.858;2023-02-22T03:10:58;9.00;;;4.90;;
23123;SDS011;11731;48.592;8.858;2023-02-22T03:13:39;9.43;;;4.83;;
23123;SDS011;11731;48.592;8.858;2023-02-22T03:16:16;8.63;;;4.73;;
23123;SDS011;11731;48.592;8.858;2023-02-22T03:18:49;5.27;;;4.23;;
23123;SDS011;11731;48.592;8.858;2023-02-22T03:21:23;9.87;;;4.70;;
23123;SDS011;11731;48.592;8.858;2023-02-22T03:23:59;6.60;;;4.50;;
23123;SDS011;11731;48.592;8.858;2023-02-22T03:26:33;8.33;;;4.27;;
23123;SDS011;11731;48.592;8.858;2023-02-22T03:29:05;5.33;;;3.83;;
23123;SDS011;11731;48.592;8.858;2023-02-22T03:31:38;7.47;;;3.73;;
23123;SDS011;11731;48.592;8.858;2023-02-22T03:34:10;7.33;;;4.60;;
23123;SDS011;11731;48.592;8.858;2023-02-22T03:36:41;8.00;;;4.47;;
23123;SDS011;11731;48.592;8.858;2023-02-22T03:39:14;6.67;;;4.13;;
23123;SDS011;11731;48.592;8.858;2023-02-22T03:41:46;5.97;;;4.00;;
23123;SDS011;11731;48.592;8.858;2023-02-22T03:44:17;5.70;;;4.53;;
23123;SDS011;11731;48.592;8.858;2023-02-22T03:46:46;6.30;;;4.00;;
23123;SDS011;11731;48.592;8.858;2023-02-22T03:49:18;5.83;;;3.57;;
23123;SDS011;11731;48.592;8.858;2023-02-22T03:51:53;6.20;;;3.87;;
23123;SDS011;11731;48.592;8.858;2023-02-22T03:54:21;6.97;;;4.27;;
23123;SDS011;11731;48.592;8.858;2023-02-22T03:56:48;5.83;;;3.90;;
23123;SDS011;11731;48.592;8.858;2023-02-22T03:59:18;5.50;;;4.17;;
23123;SDS011;11731;48.592;8.858;2023-02-22T04:01:50;7.07;;;4.37;;
23123;SDS011;11731;48.592;8.858;2023-02-22T04:04:18;6.80;;;3.87;;
23123;SDS011;11731;48.592;8.858;2023-02-22T04:06:47;10.43;;;4.43;;
23123;SDS011;11731;48.592;8.858;2023-02-22T04:09:15;6.50;;;4.40;;
23123;SDS011;11731;48.592;8.858;2023-02-22T04:11:44;6.33;;;4.27;;
23123;SDS011;11731;48.592;8.858;2023-02-22T04:14:11;6.60;;;4.30;;
23123;SDS011;11731;48.592;8.858;2023-02-22T04:16:38;7.40;;;4.37;;
23123;SDS011;11731;48.592;8.858;2023-02-22T04:19:05;6.63;;;4.20;;
23123;SDS011;11731;48.592;8.858;2023-02-22T04:21:33;8.40;;;4.17;;
23123;SDS011;11731;48.592;8.858;2023-02-22T04:24:00;5.30;;;4.07;;
23123;SDS011;11731;48.592;8.858;2023-02-22T04:26:27;7.53;;;3.93;;
23123;SDS011;11731;48.592;8.858;2023-02-22T04:28:54;7.67;;;4.80;;
23123;SDS011;11731;48.592;8.858;2023-02-22T04:31:21;5.93;;;4.00;;
23123;SDS011;11731;48.592;8.858;2023-02-22T04:33:48;6.23;;;4.50;;
23123;SDS011;11731;48.592;8.858;2023-02-22T04:36:15;4.97;;;3.80;;
23123;SDS011;11731;48.592;8.858;2023-02-22T04:38:43;7.23;;;4.70;;
23123;SDS011;11731;48.592;8.858;2023-02-22T04:41:10;8.63;;;4.40;;
23123;SDS011;11731;48.592;8.858;2023-02-22T04:43:37;5.33;;;4.43;;
23123;SDS011;11731;48.592;8.858;2023-02-22T04:46:05;6.73;;;4.43;;
23123;SDS011;11731;48.592;8.858;2023-02-22T04:48:32;5.33;;;4.27;;
23123;SDS011;11731;48.592;8.858;2023-02-22T04:50:59;6.93;;;4.53;;
23123;SDS011;11731;48.592;8.858;2023-02-22T04:53:26;8.03;;;4.30;;
23123;SDS011;11731;48.592;8.858;2023-02-22T04:55:54;7.93;;;3.80;;
23123;SDS011;11731;48.592;8.858;2023-02-22T04:58:21;5.10;;;3.83;;
23123;SDS011;11731;48.592;8.858;2023-02-22T05:00:48;6.87;;;3.60;;
23123;SDS011;11731;48.592;8.858;2023-02-22T05:03:35;8.90;;;4.27;;
23123;SDS011;11731;48.592;8.858;2023-02-22T05:06:03;7.07;;;4.13;;
23123;SDS011;11731;48.592;8.858;2023-02-22T05:08:30;5.20;;;3.90;;
23123;SDS011;11731;48.592;8.858;2023-02-22T05:10:58;7.43;;;4.27;;
23123;SDS011;11731;48.592;8.858;2023-02-22T05:13:25;7.67;;;4.37;;
23123;SDS011;11731;48.592;8.858;2023-02-22T05:15:52;8.47;;;4.30;;
23123;SDS011;11731;48.592;8.858;2023-02-22T05:18:19;7.70;;;4.60;;
23123;SDS011;11731;48.592;8.858;2023-02-22T05:20:46;7.37;;;5.07;;
23123;SDS011;11731;48.592;8.858;2023-02-22T05:23:13;7.43;;;4.87;;
23123;SDS011;11731;48.592;8.858;2023-02-22T05:25:40;6.90;;;4.83;;
23123;SDS011;11731;48.592;8.858;2023-02-22T05:28:09;7.60;;;4.73;;
23123;SDS011;11731;48.592;8.858;2023-02-22T05:30:38;5.40;;;4.10;;
23123;SDS011;11731;48.592;8.858;2023-02-22T05:33:08;10.10;;;4.70;;
23123;SDS011;11731;48.592;8.858;2023-02-22T05:35:37;6.63;;;4.80;;
23123;SDS011;11731;48.592;8.858;2023-02-22T05:38:04;6.97;;;4.80;;
23123;SDS011;11731;48.592;8.858;2023-02-22T05:40:31;6.30;;;4.50;;
23123;SDS011;11731;48.592;8.858;2023-02-22T05:42:59;8.00;;;5.17;;
23123;SDS011;11731;48.592;8.858;2023-02-22T05:45:28;7.63;;;4.80;;
23123;SDS011;11731;48.592;8.858;2023-02-22T05:47:55;6.57;;;4.90;;
23123;SDS011;11731;48.592;8.858;2023-02-22T05:50:22;7.80;;;4.87;;
23123;SDS011;11731;48.592;8.858;2023-02-22T05:52:49;5.97;;;4.60;;
23123;SDS011;11731;48.592;8.858;2023-02-22T05:55:17;8.00;;;4.47;;
23123;SDS011;11731;48.592;8.858;2023-02-22T05:57:46;8.00;;;4.63;;
23123;SDS011;11731;48.592;8.858;2023-02-22T06:00:15;6.80;;;4.27;;
23123;SDS011;11731;48.592;8.858;2023-02-22T06:02:45;7.40;;;4.83;;
23123;SDS011;11731;48.592;8.858;2023-02-22T06:05:12;4.73;;;3.97;;
23123;SDS011;11731;48.592;8.858;2023-02-22T06:07:39;6.63;;;4.10;;
23123;SDS011;11731;48.592;8.858;2023-02-22T06:10:06;6.07;;;4.47;;
23123;SDS011;11731;48.592;8.858;2023-02-22T06:12:33;5.57;;;4.17;;
23123;SDS011;11731;48.592;8.858;2023-02-22T06:15:00;6.90;;;4.90;;
23123;SDS011;11731;48.592;8.858;2023-02-22T06:17:26;6.03;;;4.40;;
23123;SDS011;11731;48.592;8.858;2023-02-22T06:19:55;7.47;;;3.80;;
23123;SDS011;11731;48.592;8.858;2023-02-22T06:22:22;8.63;;;4.30;;
23123;SDS011;11731;48.592;8.858;2023-02-22T06:24:49;7.63;;;4.80;;
23123;SDS011;11731;48.592;8.858;2023-02-22T06:27:16;7.33;;;4.37;;
23123;SDS011;11731;48.592;8.858;2023-02-22T06:29:43;9.07;;;4.40;;
23123;SDS011;11731;48.592;8.858;2023-02-22T06:32:11;6.63;;;4.73;;
23123;SDS011;11731;48.592;8.858;2023-02-22T06:34:38;6.33;;;4.60;;
23123;SDS011;11731;48.592;8.858;2023-02-22T06:37:07;9.13;;;4.57;;
23123;SDS011;11731;48.592;8.858;2023-02-22T06:39:34;9.13;;;4.43;;
23123;SDS011;11731;48.592;8.858;2023-02-22T06:42:01;7.90;;;4.50;;
23123;SDS011;11731;48.592;8.858;2023-02-22T06:44:28;6.13;;;4.40;;
23123;SDS011;11731;48.592;8.858;2023-02-22T06:46:55;8.43;;;4.50;;
23123;SDS011;11731;48.592;8.858;2023-02-22T06:49:23;9.97;;;5.00;;
23123;SDS011;11731;48.592;8.858;2023-02-22T06:51:52;11.13;;;4.37;;
23123;SDS011;11731;48.592;8.858;2023-02-22T06:54:21;9.30;;;4.90;;
23123;SDS011;11731;48.592;8.858;2023-02-22T06:56:48;6.57;;;4.50;;
23123;SDS011;11731;48.592;8.858;2023-02-22T06:59:15;9.50;;;4.63;;
23123;SDS011;11731;48.592;8.858;2023-02-22T07:01:42;11.07;;;4.87;;
23123;SDS011;11731;48.592;8.858;2023-02-22T07:04:09;7.80;;;4.40;;
23123;SDS011;11731;48.592;8.858;2023-02-22T07:06:36;7.73;;;4.73;;
23123;SDS011;11731;48.592;8.858;2023-02-22T07:09:03;8.47;;;4.80;;
23123;SDS011;11731;48.592;8.858;2023-02-22T07:11:31;6.73;;;4.33;;
23123;SDS011;11731;48.592;8.858;2023-02-22T07:13:58;7.27;;;4.77;;
23123;SDS011;11731;48.592;8.858;2023-02-22T07:16:25;8.87;;;4.80;;
23123;SDS011;11731;48.592;8.858;2023-02-22T07:18:52;7.13;;;4.63;;
23123;SDS011;11731;48.592;8.858;2023-02-22T07:21:19;6.13;;;4.70;;
23123;SDS011;11731;48.592;8.858;2023-02-22T07:23:49;6.47;;;4.67;;
23123;SDS011;11731;48.592;8.858;2023-02-22T07:26:17;8.33;;;4.60;;
23123;SDS011;11731;48.592;8.858;2023-02-22T07:28:46;7.50;;;4.70;;
23123;SDS011;11731;48.592;8.858;2023-02-22T07:31:13;12.40;;;4.73;;
23123;SDS011;11731;48.592;8.858;2023-02-22T07:33:41;5.57;;;4.40;;
23123;SDS011;11731;48.592;8.858;2023-02-22T07:36:08;5.50;;;3.80;;
23123;SDS011;11731;48.592;8.858;2023-02-22T07:38:37;7.07;;;4.03;;
23123;SDS011;11731;48.592;8.858;2023-02-22T07:41:04;7.60;;;4.70;;
23123;SDS011;11731;48.592;8.858;2023-02-22T07:43:31;6.43;;;4.17;;
23123;SDS011;11731;48.592;8.858;2023-02-22T07:45:59;5.37;;;3.90;;
23123;SDS011;11731;48.592;8.858;2023-02-22T07:48:27;7.80;;;4.50;;
23123;SDS011;11731;48.592;8.858;2023-02-22T07:50:55;5.27;;;4.10;;
23123;SDS011;11731;48.592;8.858;2023-02-22T07:53:23;6.23;;;4.50;;
23123;SDS011;11731;48.592;8.858;2023-02-22T07:55:51;6.80;;;4.07;;
23123;SDS011;11731;48.592;8.858;2023-02-22T07:58:20;12.23;;;4.53;;
23123;SDS011;11731;48.592;8.858;2023-02-22T08:00:48;5.30;;;3.80;;
23123;SDS011;11731;48.592;8.858;2023-02-22T08:03:18;5.90;;;4.47;;
23123;SDS011;11731;48.592;8.858;2023-02-22T08:05:49;5.80;;;4.43;;
23123;SDS011;11731;48.592;8.858;2023-02-22T08:08:19;13.33;;;5.40;;
23123;SDS011;11731;48.592;8.858;2023-02-22T08:10:46;11.13;;;5.77;;
23123;SDS011;11731;48.592;8.858;2023-02-22T08:13:14;9.57;;;4.67;;
23123;SDS011;11731;48.592;8.858;2023-02-22T08:15:41;8.07;;;4.73;;
23123;SDS011;11731;48.592;8.858;2023-02-22T08:18:09;8.43;;;4.87;;
23123;SDS011;11731;48.592;8.858;2023-02-22T08:20:39;7.73;;;4.73;;
23123;SDS011;11731;48.592;8.858;2023-02-22T08:23:07;20.67;;;5.63;;
23123;SDS011;11731;48.592;8.858;2023-02-22T08:25:35;19.63;;;5.67;;
23123;SDS011;11731;48.592;8.858;2023-02-22T08:28:03;16.70;;;5.83;;
23123;SDS011;11731;48.592;8.858;2023-02-22T08:30:32;12.03;;;5.60;;
23123;SDS011;11731;48.592;8.858;2023-02-22T08:32:59;12.47;;;5.30;;
23123;SDS011;11731;48.592;8.858;2023-02-22T08:35:27;9.20;;;4.80;;
23123;SDS011;11731;48.592;8.858;2023-02-22T08:37:57;12.37;;;5.13;;
23123;SDS011;11731;48.592;8.858;2023-02-22T08:40:27;10.90;;;5.47;;
23123;SDS011;11731;48.592;8.858;2023-02-22T08:42:56;8.53;;;5.30;;
23123;SDS011;11731;48.592;8.858;2023-02-22T08:45:23;7.13;;;4.67;;
23123;SDS011;11731;48.592;8.858;2023-02-22T08:47:50;13.13;;;5.97;;
23123;SDS011;11731;48.592;8.858;2023-02-22T08:50:18;7.90;;;4.90;;
23123;SDS011;11731;48.592;8.858;2023-02-22T08:52:48;5.73;;;4.80;;
23123;SDS011;11731;48.592;8.858;2023-02-22T08:55:18;7.97;;;4.83;;
23123;SDS011;11731;48.592;8.858;2023-02-22T08:57:46;14.50;;;5.87;;
23123;SDS011;11731;48.592;8.858;2023-02-22T09:00:15;10.67;;;4.80;;
23123;SDS011;11731;48.592;8.858;2023-02-22T09:02:43;8.33;;;5.10;;
23123;SDS011;11731;48.592;8.858;2023-02-22T09:05:10;11.13;;;4.87;;
23123;SDS011;11731;48.592;8.858;2023-02-22T09:07:39;9.30;;;4.73;;
23123;SDS011;11731;48.592;8.858;2023-02-22T09:10:07;12.67;;;5.30;;
23123;SDS011;11731;48.592;8.858;2023-02-22T09:12:37;9.93;;;5.07;;
23123;SDS011;11731;48.592;8.858;2023-02-22T09:15:05;11.77;;;5.03;;
23123;SDS011;11731;48.592;8.858;2023-02-22T09:17:33;9.43;;;4.90;;
23123;SDS011;11731;48.592;8.858;2023-02-22T09:20:01;8.80;;;6.37;;
23123;SDS011;11731;48.592;8.858;2023-02-22T09:22:28;8.00;;;5.10;;
23123;SDS011;11731;48.592;8.858;2023-02-22T09:24:55;9.73;;;5.63;;
23123;SDS011;11731;48.592;8.858;2023-02-22T09:27:22;12.80;;;5.60;;
23123;SDS011;11731;48.592;8.858;2023-02-22T09:29:53;10.77;;;5.50;;
23123;SDS011;11731;48.592;8.858;2023-02-22T09:32:21;16.37;;;6.03;;
23123;SDS011;11731;48.592;8.858;2023-02-22T09:34:48;9.63;;;5.03;;
23123;SDS011;11731;48.592;8.858;2023-02-22T09:37:16;9.10;;;5.57;;
23123;SDS011;11731;48.592;8.858;2023-02-22T09:39:43;12.23;;;5.97;;
23123;SDS011;11731;48.592;8.858;2023-02-22T09:42:11;8.50;;;5.57;;
23123;SDS011;11731;48.592;8.858;2023-02-22T09:44:42;11.60;;;6.23;;
23123;SDS011;11731;48.592;8.858;2023-02-22T09:47:16;12.80;;;6.23;;
23123;SDS011;11731;48.592;8.858;2023-02-22T09:50:03;11.80;;;5.70;;
23123;SDS011;11731;48.592;8.858;2023-02-22T09:52:40;9.23;;;5.70;;
23123;SDS011;11731;48.592;8.858;2023-02-22T09:55:19;15.13;;;5.70;;
23123;SDS011;11731;48.592;8.858;2023-02-22T09:58:37;9.37;;;5.53;;
23123;SDS011;11731;48.592;8.858;2023-02-22T10:01:13;12.33;;;5.63;;
23123;SDS011;11731;48.592;8.858;2023-02-22T10:04:12;13.40;;;5.90;;
23123;SDS011;11731;48.592;8.858;2023-02-22T10:06:49;9.50;;;4.83;;
23123;SDS011;11731;48.592;8.858;2023-02-22T10:09:30;8.23;;;5.27;;
23123;SDS011;11731;48.592;8.858;2023-02-22T10:12:01;9.33;;;5.10;;
23123;SDS011;11731;48.592;8.858;2023-02-22T10:14:36;6.70;;;4.90;;
23123;SDS011;11731;48.592;8.858;2023-02-22T10:17:32;11.13;;;4.90;;
23123;SDS011;11731;48.592;8.858;2023-02-22T10:22:59;9.17;;;4.53;;
23123;SDS011;11731;48.592;8.858;2023-02-22T10:25:35;9.53;;;4.93;;
23123;SDS011;11731;48.592;8.858;2023-02-22T10:28:05;11.33;;;5.13;;
23123;SDS011;11731;48.592;8.858;2023-02-22T10:30:39;11.30;;;4.70;;
23123;SDS011;11731;48.592;8.858;2023-02-22T10:33:11;6.40;;;5.07;;
23123;SDS011;11731;48.592;8.858;2023-02-22T10:42:32;10.07;;;5.40;;
23123;SDS011;11731;48.592;8.858;2023-02-22T10:45:02;10.30;;;5.20;;
23123;SDS011;11731;48.592;8.858;2023-02-22T10:47:31;10.17;;;4.80;;
23123;SDS011;11731;48.592;8.858;2023-02-22T10:49:59;8.07;;;4.67;;
23123;SDS011;11731;48.592;8.858;2023-02-22T10:52:30;7.37;;;4.77;;
23123;SDS011;11731;48.592;8.858;2023-02-22T10:54:59;9.03;;;4.97;;
23123;SDS011;11731;48.592;8.858;2023-02-22T10:57:28;10.30;;;5.43;;
23123;SDS011;11731;48.592;8.858;2023-02-22T10:59:58;11.80;;;5.13;;
23123;SDS011;11731;48.592;8.858;2023-02-22T11:02:48;8.13;;;4.93;;
23123;SDS011;11731;48.592;8.858;2023-02-22T11:05:29;6.33;;;4.57;;
23123;SDS011;11731;48.592;8.858;2023-02-22T11:08:14;5.97;;;4.30;;
23123;SDS011;11731;48.592;8.858;2023-02-22T11:10:49;10.07;;;5.37;;
23123;SDS011;11731;48.592;8.858;2023-02-22T11:13:29;7.27;;;4.87;;
23123;SDS011;11731;48.592;8.858;2023-02-22T11:16:00;6.63;;;4.87;;
23123;SDS011;11731;48.592;8.858;2023-02-22T11:18:42;10.60;;;4.70;;
23123;SDS011;11731;48.592;8.858;2023-02-22T11:21:10;7.17;;;4.60;;
23123;SDS011;11731;48.592;8.858;2023-02-22T11:23:48;7.97;;;5.10;;
23123;SDS011;11731;48.592;8.858;2023-02-22T11:26:36;10.93;;;5.37;;
23123;SDS011;11731;48.592;8.858;2023-02-22T11:29:14;6.03;;;4.23;;
23123;SDS011;11731;48.592;8.858;2023-02-22T11:31:48;10.93;;;4.67;;
23123;SDS011;11731;48.592;8.858;2023-02-22T11:34:32;6.77;;;4.90;;
23123;SDS011;11731;48.592;8.858;2023-02-22T11:37:15;7.90;;;4.70;;
23123;SDS011;11731;48.592;8.858;2023-02-22T11:39:46;7.40;;;5.13;;
23123;SDS011;11731;48.592;8.858;2023-02-22T11:42:26;6.80;;;4.43;;
23123;SDS011;11731;48.592;8.858;2023-02-22T11:45:09;10.27;;;4.80;;
23123;SDS011;11731;48.592;8.858;2023-02-22T11:47:49;8.90;;;4.57;;
23123;SDS011;11731;48.592;8.858;2023-02-22T11:50:28;7.30;;;4.63;;
23123;SDS011;11731;48.592;8.858;2023-02-22T11:53:00;7.67;;;4.53;;
23123;SDS011;11731;48.592;8.858;2023-02-22T11:55:41;5.33;;;4.57;;
23123;SDS011;11731;48.592;8.858;2023-02-22T11:58:22;6.67;;;4.83;;
23123;SDS011;11731;48.592;8.858;2023-02-22T12:01:04;8.20;;;5.07;;
23123;SDS011;11731;48.592;8.858;2023-02-22T12:07:21;7.50;;;4.93;;
23123;SDS011;11731;48.592;8.858;2023-02-22T12:10:10;8.13;;;5.20;;
23123;SDS011;11731;48.592;8.858;2023-02-22T12:13:13;6.27;;;4.70;;
23123;SDS011;11731;48.592;8.858;2023-02-22T12:22:55;6.90;;;4.90;;
23123;SDS011;11731;48.592;8.858;2023-02-22T12:25:29;6.63;;;4.77;;
23123;SDS011;11731;48.592;8.858;2023-02-22T12:31:34;7.40;;;4.87;;
23123;SDS011;11731;48.592;8.858;2023-02-22T12:34:05;7.63;;;4.60;;
23123;SDS011;11731;48.592;8.858;2023-02-22T12:36:38;8.87;;;4.37;;
23123;SDS011;11731;48.592;8.858;2023-02-22T12:39:23;7.57;;;4.67;;
23123;SDS011;11731;48.592;8.858;2023-02-22T12:42:15;6.90;;;4.87;;
23123;SDS011;11731;48.592;8.858;2023-02-22T12:47:04;14.20;;;5.83;;
23123;SDS011;11731;48.592;8.858;2023-02-22T12:48:37;8.87;;;5.03;;
23123;SDS011;11731;48.592;8.858;2023-02-22T12:51:17;11.40;;;5.20;;
23123;SDS011;11731;48.592;8.858;2023-02-22T12:53:52;7.23;;;4.50;;
23123;SDS011;11731;48.592;8.858;2023-02-22T12:56:29;12.33;;;5.27;;
23123;SDS011;11731;48.592;8.858;2023-02-22T12:59:00;9.90;;;5.20;;
23123;SDS011;11731;48.592;8.858;2023-02-22T13:01:33;7.17;;;4.97;;
23123;SDS011;11731;48.592;8.858;2023-02-22T13:04:05;9.13;;;5.87;;
23123;SDS011;11731;48.592;8.858;2023-02-22T13:06:45;7.63;;;5.40;;
23123;SDS011;11731;48.592;8.858;2023-02-22T13:09:32;7.53;;;5.17;;
23123;SDS011;11731;48.592;8.858;2023-02-22T13:12:13;8.60;;;5.43;;
23123;SDS011;11731;48.592;8.858;2023-02-22T13:14:51;6.47;;;4.73;;
23123;SDS011;11731;48.592;8.858;2023-02-22T13:17:29;8.00;;;5.23;;
23123;SDS011;11731;48.592;8.858;2023-02-22T13:20:02;7.53;;;5.20;;
23123;SDS011;11731;48.592;8.858;2023-02-22T13:22:37;9.93;;;5.03;;
23123;SDS011;11731;48.592;8.858;2023-02-22T13:25:11;8.63;;;5.13;;
23123;SDS011;11731;48.592;8.858;2023-02-22T13:27:45;7.50;;;4.47;;
23123;SDS011;11731;48.592;8.858;2023-02-22T13:30:18;8.47;;;5.60;;
23123;SDS011;11731;48.592;8.858;2023-02-22T13:32:52;12.03;;;5.33;;
23123;SDS011;11731;48.592;8.858;2023-02-22T13:35:48;7.90;;;5.50;;
23123;SDS011;11731;48.592;8.858;2023-02-22T13:38:37;6.73;;;4.90;;
23123;SDS011;11731;48.592;8.858;2023-02-22T13:41:42;6.90;;;5.10;;
23123;SDS011;11731;48.592;8.858;2023-02-22T13:44:43;9.50;;;5.73;;
23123;SDS011;11731;48.592;8.858;2023-02-22T13:47:34;8.27;;;5.20;;
23123;SDS011;11731;48.592;8.858;2023-02-22T13:50:22;13.30;;;5.60;;
23123;SDS011;11731;48.592;8.858;2023-02-22T13:53:27;11.47;;;5.07;;
23123;SDS011;11731;48.592;8.858;2023-02-22T13:56:01;7.37;;;5.10;;
23123;SDS011;11731;48.592;8.858;2023-02-22T13:58:29;7.77;;;4.93;;
23123;SDS011;11731;48.592;8.858;2023-02-22T14:00:57;8.90;;;4.97;;
23123;SDS011;11731;48.592;8.858;2023-02-22T14:09:06;7.47;;;5.00;;
23123;SDS011;11731;48.592;8.858;2023-02-22T14:14:11;12.13;;;5.37;;
23123;SDS011;11731;48.592;8.858;2023-02-22T14:22:54;9.30;;;5.13;;
23123;SDS011;11731;48.592;8.858;2023-02-22T14:25:32;10.03;;;5.37;;
23123;SDS011;11731;48.592;8.858;2023-02-22T14:28:02;7.73;;;4.77;;
23123;SDS011;11731;48.592;8.858;2023-02-22T14:30:30;8.60;;;5.20;;
23123;SDS011;11731;48.592;8.858;2023-02-22T14:33:01;7.73;;;4.70;;
23123;SDS011;11731;48.592;8.858;2023-02-22T14:35:30;10.77;;;5.37;;
23123;SDS011;11731;48.592;8.858;2023-02-22T14:38:03;7.87;;;4.97;;
23123;SDS011;11731;48.592;8.858;2023-02-22T14:40:36;9.73;;;5.73;;
23123;SDS011;11731;48.592;8.858;2023-02-22T14:43:37;9.07;;;5.37;;
23123;SDS011;11731;48.592;8.858;2023-02-22T14:46:25;6.90;;;5.17;;
23123;SDS011;11731;48.592;8.858;2023-02-22T14:48:58;7.43;;;5.37;;
23123;SDS011;11731;48.592;8.858;2023-02-22T14:51:30;8.40;;;5.70;;
23123;SDS011;11731;48.592;8.858;2023-02-22T14:54:05;7.67;;;4.53;;
23123;SDS011;11731;48.592;8.858;2023-02-22T14:56:37;7.77;;;4.90;;
23123;SDS011;11731;48.592;8.858;2023-02-22T14:59:14;10.20;;;5.33;;
23123;SDS011;11731;48.592;8.858;2023-02-22T15:01:43;9.07;;;4.50;;
23123;SDS011;11731;48.592;8.858;2023-02-22T15:04:17;8.50;;;5.17;;
23123;SDS011;11731;48.592;8.858;2023-02-22T15:07:53;7.87;;;5.63;;
23123;SDS011;11731;48.592;8.858;2023-02-22T15:10:04;11.93;;;5.53;;
23123;SDS011;11731;48.592;8.858;2023-02-22T15:12:51;10.87;;;5.70;;
23123;SDS011;11731;48.592;8.858;2023-02-22T15:15:38;6.87;;;5.53;;
23123;SDS011;11731;48.592;8.858;2023-02-22T15:18:11;10.33;;;5.80;;
23123;SDS011;11731;48.592;8.858;2023-02-22T15:20:51;7.43;;;5.57;;
23123;SDS011;11731;48.592;8.858;2023-02-22T15:23:23;8.83;;;5.70;;
23123;SDS011;11731;48.592;8.858;2023-02-22T15:26:00;14.17;;;6.00;;
23123;SDS011;11731;48.592;8.858;2023-02-22T15:28:28;13.27;;;5.90;;
23123;SDS011;11731;48.592;8.858;2023-02-22T15:31:15;8.97;;;5.70;;
23123;SDS011;11731;48.592;8.858;2023-02-22T15:33:47;12.80;;;6.17;;
23123;SDS011;11731;48.592;8.858;2023-02-22T15:36:19;8.77;;;6.40;;
23123;SDS011;11731;48.592;8.858;2023-02-22T15:38:50;9.43;;;6.83;;
23123;SDS011;11731;48.592;8.858;2023-02-22T15:41:22;13.23;;;6.30;;
23123;SDS011;11731;48.592;8.858;2023-02-22T15:43:58;11.37;;;6.67;;
23123;SDS011;11731;48.592;8.858;2023-02-22T15:46:26;9.27;;;6.73;;
23123;SDS011;11731;48.592;8.858;2023-02-22T15:49:18;9.60;;;6.83;;
23123;SDS011;11731;48.592;8.858;2023-02-22T15:51:49;13.10;;;6.67;;
23123;SDS011;11731;48.592;8.858;2023-02-22T15:54:27;13.00;;;7.43;;
23123;SDS011;11731;48.592;8.858;2023-02-22T15:56:55;13.43;;;6.60;;
23123;SDS011;11731;48.592;8.858;2023-02-22T15:59:23;11.67;;;6.00;;
23123;SDS011;11731;48.592;8.858;2023-02-22T16:01:57;11.80;;;6.77;;
23123;SDS011;11731;48.592;8.858;2023-02-22T16:04:26;11.13;;;7.37;;
23123;SDS011;11731;48.592;8.858;2023-02-22T16:07:02;13.40;;;7.23;;